createdAt,value
2022-11-16T00:00:04.435Z,80.25
2022-11-16T00:02:35.489Z,79.79
2022-11-16T00:05:05.729Z,79.84
2022-11-16T00:07:33.351Z,79.93
2022-11-16T00:10:01.289Z,81.05
2022-11-16T00:12:29.016Z,80.89
2022-11-16T00:14:56.744Z,80.55
2022-11-16T00:17:24.463Z,80.33
2022-11-16T00:19:53.501Z,80.29
2022-11-16T00:22:21.813Z,79.98
2022-11-16T00:24:49.596Z,80.49
2022-11-16T00:27:17.441Z,80.40
2022-11-16T00:29:46.429Z,80.92
2022-11-16T00:32:14.131Z,81.39
2022-11-16T00:34:41.793Z,81.29
2022-11-16T00:37:10.871Z,81.58
2022-11-16T00:39:38.839Z,82.07
2022-11-16T00:42:06.675Z,81.60
2022-11-16T00:44:34.343Z,81.44
2022-11-16T00:47:02.298Z,82.27
2022-11-16T00:49:29.977Z,83.03
2022-11-16T00:51:57.647Z,81.92
2022-11-16T00:54:26.914Z,81.99
2022-11-16T00:56:54.640Z,82.06
2022-11-16T00:59:22.315Z,82.02
2022-11-16T01:01:50.107Z,82.03
2022-11-16T01:04:17.848Z,82.67
2022-11-16T01:06:45.529Z,82.83
2022-11-16T01:09:13.249Z,82.41
2022-11-16T01:12:00.392Z,82.71
2022-11-16T01:14:30.329Z,82.96
2022-11-16T01:16:58.028Z,83.30
2022-11-16T01:19:25.784Z,83.04
2022-11-16T01:21:53.488Z,82.73
2022-11-16T01:24:21.458Z,83.06
2022-11-16T01:26:50.543Z,82.83
2022-11-16T01:29:18.743Z,82.47
2022-11-16T01:31:46.453Z,82.76
2022-11-16T01:34:14.345Z,83.24
2022-11-16T01:36:42.050Z,82.77
2022-11-16T01:39:12.818Z,82.64
2022-11-16T01:41:42.166Z,83.22
2022-11-16T01:44:58.759Z,82.67
2022-11-16T01:47:26.673Z,82.69
2022-11-16T01:50:00.642Z,83.35
2022-11-16T01:52:33.093Z,82.79
2022-11-16T01:55:02.508Z,83.20
2022-11-16T01:57:38.405Z,83.32
2022-11-16T02:00:12.082Z,84.05
2022-11-16T02:02:39.812Z,83.85
2022-11-16T02:05:10.577Z,84.04
2022-11-16T02:08:31.478Z,83.44
2022-11-16T02:11:23.923Z,83.57
2022-11-16T02:14:10.426Z,83.64
2022-11-16T02:16:53.231Z,83.94
2022-11-16T02:20:13.330Z,83.81
2022-11-16T02:23:08.024Z,83.24
2022-11-16T02:25:54.692Z,83.13
2022-11-16T02:28:43.456Z,83.81
2022-11-16T02:31:21.139Z,84.00
2022-11-16T02:33:52.983Z,83.91
2022-11-16T02:36:25.870Z,84.15
2022-11-16T02:39:01.930Z,84.27
2022-11-16T02:41:34.733Z,83.73
2022-11-16T02:44:12.976Z,83.43
2022-11-16T02:46:48.561Z,83.50
2022-11-16T02:49:20.525Z,83.47
2022-11-16T02:51:50.097Z,83.42
2022-11-16T02:54:21.879Z,83.92
2022-11-16T02:56:56.539Z,84.07
2022-11-16T02:59:30.352Z,84.35
2022-11-16T03:02:19.877Z,84.77
2022-11-16T03:04:53.109Z,84.58
2022-11-16T03:07:30.114Z,84.37
2022-11-16T03:09:59.984Z,84.64
2022-11-16T03:12:33.645Z,85.27
2022-11-16T03:15:06.174Z,85.02
2022-11-16T03:17:43.141Z,84.62
2022-11-16T03:20:16.081Z,84.81
2022-11-16T03:22:48.419Z,84.74
2022-11-16T03:25:20.403Z,84.99
2022-11-16T03:27:55.462Z,84.78
2022-11-16T03:30:26.416Z,84.22
2022-11-16T03:33:04.720Z,84.30
2022-11-16T03:35:40.068Z,84.08
2022-11-16T03:38:11.401Z,84.63
2022-11-16T03:40:42.058Z,84.75
2022-11-16T03:43:11.205Z,84.27
2022-11-16T03:45:39.537Z,83.80
2022-11-16T03:48:09.226Z,84.19
2022-11-16T03:50:36.955Z,83.26
2022-11-16T03:53:06.239Z,83.66
2022-11-16T03:55:33.944Z,83.74
2022-11-16T03:58:01.683Z,83.33
2022-11-16T04:00:29.546Z,83.71
2022-11-16T04:02:57.414Z,83.51
2022-11-16T04:05:44.128Z,83.40
2022-11-16T04:08:34.179Z,83.68
2022-11-16T04:11:19.839Z,83.13
2022-11-16T04:14:09.084Z,83.53
2022-11-16T04:16:55.281Z,82.96
2022-11-16T04:19:40.571Z,82.94
2022-11-16T04:22:35.255Z,83.45
2022-11-16T04:25:11.474Z,82.97
2022-11-16T04:27:56.773Z,83.20
2022-11-16T04:30:24.678Z,82.49
2022-11-16T04:33:21.720Z,82.72
2022-11-16T04:36:07.038Z,83.48
2022-11-16T04:38:36.939Z,82.90
2022-11-16T04:41:05.123Z,82.99
2022-11-16T04:43:32.049Z,83.71
2022-11-16T04:46:17.358Z,84.03
2022-11-16T04:48:45.056Z,84.40
2022-11-16T04:51:12.798Z,83.70
2022-11-16T04:53:41.853Z,82.95
2022-11-16T04:56:09.558Z,83.33
2022-11-16T04:58:37.812Z,83.86
2022-11-16T05:01:05.565Z,83.78
2022-11-16T05:03:33.350Z,84.38
2022-11-16T05:06:01.041Z,84.55
2022-11-16T05:08:29.256Z,84.39
2022-11-16T05:10:58.277Z,83.93
2022-11-16T05:13:26.013Z,84.58
2022-11-16T05:15:53.699Z,84.09
2022-11-16T05:18:21.619Z,84.45
2022-11-16T05:21:01.824Z,84.04
2022-11-16T05:23:55.289Z,83.97
2022-11-16T05:26:24.348Z,83.96
2022-11-16T05:28:52.069Z,84.60
2022-11-16T05:31:19.824Z,84.50
2022-11-16T05:33:47.523Z,84.13
2022-11-16T05:36:15.221Z,84.47
2022-11-16T05:38:42.943Z,84.10
2022-11-16T05:41:10.888Z,84.06
2022-11-16T05:43:39.981Z,83.74
2022-11-16T05:46:07.675Z,83.36
2022-11-16T05:48:35.602Z,83.11
2022-11-16T05:51:03.800Z,83.03
2022-11-16T05:53:31.513Z,83.30
2022-11-16T05:55:59.289Z,82.76
2022-11-16T05:58:27.073Z,83.71
2022-11-16T06:00:56.163Z,83.99
2022-11-16T06:03:24.894Z,83.54
2022-11-16T06:05:55.724Z,82.89
2022-11-16T06:08:23.557Z,83.31
2022-11-16T06:10:51.458Z,83.24
2022-11-16T06:13:19.319Z,83.34
2022-11-16T06:15:53.154Z,83.93
2022-11-16T06:18:22.410Z,83.07
2022-11-16T06:20:50.172Z,83.69
2022-11-16T06:23:17.960Z,83.23
2022-11-16T06:25:45.743Z,83.44
2022-11-16T06:28:14.159Z,82.82
2022-11-16T06:30:41.897Z,83.04
2022-11-16T06:33:09.703Z,83.16
2022-11-16T06:35:38.757Z,83.56
2022-11-16T06:38:06.578Z,83.05
2022-11-16T06:40:34.630Z,83.49
2022-11-16T06:43:04.652Z,83.00
2022-11-16T06:45:32.374Z,83.90
2022-11-16T06:48:00.092Z,83.00
2022-11-16T06:50:27.849Z,83.25
2022-11-16T06:52:56.871Z,82.83
2022-11-16T06:55:24.689Z,82.95
2022-11-16T06:57:52.437Z,83.26
2022-11-16T07:00:20.638Z,82.47
2022-11-16T07:02:48.436Z,82.99
2022-11-16T07:05:16.356Z,81.63
2022-11-16T07:07:44.131Z,80.07
2022-11-16T07:10:13.636Z,79.78
2022-11-16T07:12:41.422Z,79.21
2022-11-16T07:15:10.220Z,79.24
2022-11-16T07:17:39.510Z,78.92
2022-11-16T07:20:08.420Z,79.66
2022-11-16T07:22:36.249Z,79.30
2022-11-16T07:25:04.009Z,80.04
2022-11-16T07:27:33.060Z,79.91
2022-11-16T07:30:02.056Z,79.69
2022-11-16T07:32:31.187Z,79.38
2022-11-16T07:34:59.605Z,79.05
2022-11-16T07:37:27.637Z,78.17
2022-11-16T07:39:55.432Z,78.78
2022-11-16T07:42:23.211Z,77.73
2022-11-16T07:44:52.325Z,78.10
2022-11-16T07:47:20.579Z,78.11
2022-11-16T07:49:48.892Z,78.33
2022-11-16T07:52:16.714Z,78.56
2022-11-16T07:54:44.489Z,79.57
2022-11-16T07:57:12.210Z,79.63
2022-11-16T07:59:39.926Z,80.36
2022-11-16T08:02:10.997Z,79.09
2022-11-16T08:04:39.976Z,78.42
2022-11-16T08:07:07.728Z,78.89
2022-11-16T08:09:38.039Z,78.40
2022-11-16T08:12:06.096Z,78.06
2022-11-16T08:14:33.817Z,79.28
2022-11-16T08:17:03.477Z,78.36
2022-11-16T08:19:33.137Z,79.05
2022-11-16T08:22:01.187Z,80.43
2022-11-16T08:24:29.190Z,80.58
2022-11-16T08:26:58.687Z,80.39
2022-11-16T08:29:26.709Z,80.12
2022-11-16T08:31:54.587Z,79.60
2022-11-16T08:34:22.782Z,79.80
2022-11-16T08:36:52.053Z,79.96
2022-11-16T08:39:19.877Z,78.63
2022-11-16T08:41:47.589Z,76.85
2022-11-16T08:44:16.273Z,76.38
2022-11-16T08:46:44.028Z,76.20
2022-11-16T08:49:11.766Z,74.87
2022-11-16T08:51:39.581Z,74.05
2022-11-16T08:54:09.376Z,74.06
2022-11-16T08:56:37.241Z,71.79
2022-11-16T08:59:05.055Z,72.53
2022-11-16T09:01:33.679Z,72.93
2022-11-16T09:04:01.649Z,73.41
2022-11-16T09:06:29.671Z,75.18
2022-11-16T09:08:57.975Z,74.74
2022-11-16T09:11:27.697Z,74.63
2022-11-16T09:13:57.629Z,75.43
2022-11-16T09:16:27.785Z,75.93
2022-11-16T09:18:56.210Z,77.05
2022-11-16T09:21:26.552Z,75.97
2022-11-16T09:23:56.065Z,76.86
2022-11-16T09:26:26.214Z,77.65
2022-11-16T09:28:58.158Z,76.56
2022-11-16T09:31:27.864Z,74.09
2022-11-16T09:33:58.100Z,74.06
2022-11-16T09:36:27.292Z,73.50
2022-11-16T09:39:29.432Z,74.89
2022-11-16T09:42:12.637Z,75.10
2022-11-16T09:44:59.258Z,74.99
2022-11-16T09:47:41.915Z,75.60
2022-11-16T09:50:28.886Z,75.92
2022-11-16T09:53:07.095Z,75.06
2022-11-16T09:55:43.527Z,75.12
2022-11-16T09:58:20.384Z,75.41
2022-11-16T10:01:04.703Z,76.22
2022-11-16T10:03:44.366Z,76.18
2022-11-16T10:06:23.460Z,76.63
2022-11-16T10:08:56.504Z,76.23
2022-11-16T10:11:52.752Z,76.06
2022-11-16T10:14:57.426Z,75.69
2022-11-16T10:17:52.044Z,75.89
2022-11-16T10:20:46.382Z,75.35
2022-11-16T10:23:31.702Z,75.50
2022-11-16T10:26:18.401Z,74.92
2022-11-16T10:29:10.117Z,75.21
2022-11-16T10:32:02.455Z,75.99
2022-11-16T10:34:46.254Z,74.51
2022-11-16T10:37:16.133Z,73.28
2022-11-16T10:39:44.174Z,73.75
2022-11-16T10:42:18.074Z,73.33
2022-11-16T10:44:51.651Z,72.35
2022-11-16T10:47:30.812Z,72.15
2022-11-16T10:50:07.406Z,73.12
2022-11-16T10:52:35.460Z,72.24
2022-11-16T10:55:03.243Z,72.30
2022-11-16T10:57:55.757Z,71.67
2022-11-16T11:00:42.049Z,70.69
2022-11-16T11:03:11.847Z,70.54
2022-11-16T11:05:52.705Z,70.80
2022-11-16T11:08:31.374Z,71.04
2022-11-16T11:11:22.849Z,71.09
2022-11-16T11:14:09.723Z,71.08
2022-11-16T11:16:37.978Z,70.05
2022-11-16T11:19:19.681Z,70.03
2022-11-16T11:21:49.826Z,70.01
2022-11-16T11:27:06.919Z,67.16
2022-11-16T11:29:40.725Z,67.61
2022-11-16T11:32:22.395Z,68.80
2022-11-16T11:34:55.701Z,67.98
2022-11-16T11:37:30.713Z,67.68
2022-11-16T11:40:22.798Z,68.00
2022-11-16T11:43:00.493Z,67.06
2022-11-16T11:45:45.789Z,66.21
2022-11-16T11:48:33.065Z,67.15
2022-11-16T11:51:12.030Z,66.86
2022-11-16T11:53:55.184Z,67.13
2022-11-16T11:56:24.083Z,68.13
2022-11-16T11:58:52.655Z,67.81
2022-11-16T12:01:52.446Z,66.87
2022-11-16T12:05:20.490Z,67.26
2022-11-16T12:08:15.312Z,66.10
2022-11-16T12:10:52.871Z,64.10
2022-11-16T12:13:51.545Z,63.75
2022-11-16T12:16:33.513Z,65.88
2022-11-16T12:19:29.148Z,65.18
2022-11-16T12:22:15.747Z,64.82
2022-11-16T12:25:07.307Z,64.69
2022-11-16T12:27:53.024Z,64.25
2022-11-16T12:30:24.229Z,64.49
2022-11-16T12:33:23.588Z,63.91
2022-11-16T12:36:03.400Z,64.91
2022-11-16T12:38:50.810Z,63.78
2022-11-16T12:41:56.593Z,63.24
2022-11-16T12:44:46.773Z,63.18
2022-11-16T12:47:30.105Z,62.96
2022-11-16T12:50:19.217Z,63.23
2022-11-16T12:53:11.396Z,64.12
2022-11-16T12:55:50.664Z,62.76
2022-11-16T12:58:33.442Z,61.55
2022-11-16T13:01:18.373Z,60.68
2022-11-16T13:03:53.533Z,60.30
2022-11-16T13:06:27.462Z,57.92
2022-11-16T13:09:08.636Z,56.72
2022-11-16T13:11:41.419Z,57.13
2022-11-16T13:14:18.950Z,58.44
2022-11-16T13:16:50.229Z,57.51
2022-11-16T13:19:19.367Z,58.00
2022-11-16T13:21:59.851Z,58.20
2022-11-16T13:24:47.747Z,58.24
2022-11-16T13:27:31.280Z,56.78
2022-11-16T13:30:06.166Z,56.98
2022-11-16T13:33:04.230Z,54.70
2022-11-16T13:35:32.206Z,54.97
2022-11-16T13:38:00.023Z,53.48
2022-11-16T13:40:32.339Z,52.93
2022-11-16T13:43:17.593Z,52.47
2022-11-16T13:45:56.995Z,53.85
2022-11-16T13:48:33.263Z,56.38
2022-11-16T13:51:05.159Z,57.55
2022-11-16T13:56:29.233Z,56.88
2022-11-16T13:58:59.447Z,57.19
2022-11-16T14:01:58.731Z,55.65
2022-11-16T14:04:42.911Z,54.93
2022-11-16T14:07:42.792Z,53.70
2022-11-16T14:10:12.629Z,53.99
2022-11-16T14:12:52.661Z,54.14
2022-11-16T14:15:22.775Z,54.21
2022-11-16T14:17:57.579Z,54.63
2022-11-16T14:20:56.244Z,56.35
2022-11-16T14:23:36.973Z,57.04
2022-11-16T14:26:24.065Z,57.28
2022-11-16T14:29:15.266Z,59.37
2022-11-16T14:31:52.181Z,59.79
2022-11-16T14:34:25.304Z,60.31
2022-11-16T14:36:54.359Z,60.04
2022-11-16T14:39:38.401Z,60.76
2022-11-16T14:42:17.649Z,61.19
2022-11-16T14:44:46.231Z,61.36
2022-11-16T14:47:26.744Z,62.57
2022-11-16T14:49:57.268Z,63.05
2022-11-16T14:52:36.124Z,63.43
2022-11-16T14:55:09.275Z,62.65
2022-11-16T14:57:37.525Z,62.92
2022-11-16T15:00:12.491Z,63.10
2022-11-16T15:02:42.232Z,64.53
2022-11-16T15:05:18.661Z,63.39
2022-11-16T15:07:52.271Z,63.79
2022-11-16T15:10:24.534Z,63.65
2022-11-16T15:12:55.618Z,63.52
2022-11-16T15:15:27.768Z,64.41
2022-11-16T15:18:12.848Z,64.43
2022-11-16T15:20:51.335Z,64.54
2022-11-16T15:23:23.787Z,65.71
2022-11-16T15:25:55.373Z,64.53
2022-11-16T15:28:27.168Z,65.51
2022-11-16T15:30:58.552Z,66.25
2022-11-16T15:33:30.794Z,66.14
2022-11-16T15:36:00.805Z,66.18
2022-11-16T15:38:32.304Z,66.23
2022-11-16T15:41:04.504Z,66.50
2022-11-16T15:43:45.216Z,66.38
2022-11-16T15:46:25.894Z,67.55
2022-11-16T15:48:54.837Z,68.12
2022-11-16T15:51:27.260Z,67.97
2022-11-16T15:53:56.669Z,67.64
2022-11-16T15:56:33.385Z,67.58
2022-11-16T15:59:12.401Z,68.72
2022-11-16T16:01:44.285Z,68.35
2022-11-16T16:04:17.843Z,68.39
2022-11-16T16:06:50.800Z,68.93
2022-11-16T16:09:27.065Z,68.37
2022-11-16T16:11:57.628Z,69.20
2022-11-16T16:14:30.217Z,68.72
2022-11-16T16:16:59.454Z,68.49
2022-11-16T16:19:43.266Z,68.33
2022-11-16T16:22:26.397Z,69.17
2022-11-16T16:24:55.742Z,69.08
2022-11-16T16:27:27.238Z,70.11
2022-11-16T16:30:00.171Z,70.46
2022-11-16T16:32:31.077Z,70.38
2022-11-16T16:35:03.537Z,69.19
2022-11-16T16:37:35.688Z,70.60
2022-11-16T16:40:03.496Z,70.74
2022-11-16T16:42:31.318Z,71.39
2022-11-16T16:45:02.399Z,70.95
2022-11-16T16:47:30.349Z,71.05
2022-11-16T16:49:58.046Z,70.95
2022-11-16T16:52:25.795Z,70.91
2022-11-16T16:54:54.861Z,70.79
2022-11-16T16:57:22.616Z,71.24
2022-11-16T16:59:50.694Z,71.43
2022-11-16T17:02:19.607Z,72.25
2022-11-16T17:04:48.406Z,72.66
2022-11-16T17:07:17.173Z,72.22
2022-11-16T17:09:45.580Z,71.64
2022-11-16T17:12:15.093Z,71.58
2022-11-16T17:14:42.931Z,71.72
2022-11-16T17:17:10.689Z,71.53
2022-11-16T17:19:38.494Z,71.83
2022-11-16T17:22:06.505Z,71.22
2022-11-16T17:24:35.952Z,71.84
2022-11-16T17:27:03.733Z,72.77
2022-11-16T17:29:32.846Z,72.88
2022-11-16T17:32:00.646Z,72.43
2022-11-16T17:34:28.466Z,71.55
2022-11-16T17:36:56.992Z,72.49
2022-11-16T17:39:24.781Z,72.09
2022-11-16T17:41:53.064Z,71.69
2022-11-16T17:44:22.141Z,71.24
2022-11-16T17:46:51.464Z,70.80
2022-11-16T17:49:19.198Z,70.89
2022-11-16T17:51:46.925Z,70.65
2022-11-16T17:54:14.711Z,71.30
2022-11-16T17:56:42.541Z,71.21
2022-11-16T17:59:10.424Z,71.32
2022-11-16T18:01:39.410Z,71.06
2022-11-16T18:04:08.657Z,71.12
2022-11-16T18:06:36.480Z,70.86
2022-11-16T18:09:04.286Z,70.63
2022-11-16T18:11:31.994Z,71.63
2022-11-16T18:14:02.081Z,71.34
2022-11-16T18:16:33.121Z,71.04
2022-11-16T18:19:03.495Z,70.41
2022-11-16T18:21:38.818Z,72.00
2022-11-16T18:24:07.505Z,71.99
2022-11-16T18:26:35.498Z,71.35
2022-11-16T18:29:03.689Z,70.79
2022-11-16T18:31:32.909Z,70.57
2022-11-16T18:34:02.150Z,70.28
2022-11-16T18:36:30.066Z,70.83
2022-11-16T18:38:59.148Z,70.99
2022-11-16T18:41:30.583Z,71.38
2022-11-16T18:44:00.958Z,72.04
2022-11-16T18:46:31.938Z,72.69
2022-11-16T18:49:00.862Z,71.80
2022-11-16T18:51:30.051Z,72.46
2022-11-16T18:53:59.345Z,71.92
2022-11-16T18:56:27.878Z,72.08
2022-11-16T18:58:55.704Z,71.86
2022-11-16T19:01:27.335Z,71.72
2022-11-16T19:04:00.040Z,71.87
2022-11-16T19:06:27.760Z,71.13
2022-11-16T19:08:59.604Z,71.39
2022-11-16T19:11:29.526Z,70.92
2022-11-16T19:14:01.026Z,70.81
2022-11-16T19:16:29.281Z,70.80
2022-11-16T19:18:57.759Z,71.67
2022-11-16T19:21:26.131Z,71.41
2022-11-16T19:23:56.459Z,70.97
2022-11-16T19:26:26.265Z,70.87
2022-11-16T19:28:56.126Z,70.72
2022-11-16T19:31:27.257Z,70.67
2022-11-16T19:33:56.101Z,70.49
2022-11-16T19:36:25.361Z,70.57
2022-11-16T19:38:53.598Z,71.11
2022-11-16T19:41:22.293Z,70.88
2022-11-16T19:43:52.379Z,70.90
2022-11-16T19:46:21.869Z,71.09
2022-11-16T19:48:50.269Z,71.80
2022-11-16T19:51:20.791Z,71.68
2022-11-16T19:53:49.429Z,71.90
2022-11-16T19:56:19.781Z,71.56
2022-11-16T19:58:48.084Z,71.47
2022-11-16T20:01:18.895Z,72.13
2022-11-16T20:03:51.181Z,72.22
2022-11-16T20:06:24.107Z,72.92
2022-11-16T20:08:55.745Z,72.82
2022-11-16T20:11:26.553Z,72.76
2022-11-16T20:13:57.067Z,72.63
2022-11-16T20:16:31.682Z,73.56
2022-11-16T20:19:06.153Z,74.17
2022-11-16T20:21:37.407Z,73.45
2022-11-16T20:24:08.628Z,73.35
2022-11-16T20:26:41.425Z,74.11
2022-11-16T20:29:14.011Z,74.80
2022-11-16T20:31:44.933Z,74.79
2022-11-16T20:34:16.487Z,74.95
2022-11-16T20:36:47.577Z,74.02
2022-11-16T20:39:18.288Z,74.56
2022-11-16T20:41:46.272Z,74.38
2022-11-16T20:44:19.005Z,75.94
2022-11-16T20:47:10.528Z,75.66
2022-11-16T20:49:39.649Z,76.01
2022-11-16T20:52:07.382Z,75.63
2022-11-16T20:54:35.156Z,74.93
2022-11-16T20:57:10.033Z,74.84
2022-11-16T20:59:37.854Z,75.24
2022-11-16T21:02:05.552Z,74.74
2022-11-16T21:04:33.288Z,75.17
2022-11-16T21:07:02.391Z,76.07
2022-11-16T21:09:50.393Z,76.18
2022-11-16T21:12:42.541Z,76.36
2022-11-16T21:19:16.896Z,75.79
2022-11-16T21:21:45.673Z,75.89
2022-11-16T21:24:14.834Z,75.59
2022-11-16T21:26:42.549Z,75.75
2022-11-16T21:29:10.252Z,75.82
2022-11-16T21:31:38.252Z,76.44
2022-11-16T21:34:07.440Z,76.84
2022-11-16T21:36:36.139Z,76.64
2022-11-16T21:39:04.380Z,76.73
2022-11-16T21:41:33.860Z,77.00
2022-11-16T21:44:01.597Z,77.24
2022-11-16T21:46:29.307Z,77.81
2022-11-16T21:48:57.287Z,77.94
2022-11-16T21:51:27.777Z,77.61
2022-11-16T21:53:56.129Z,78.42
2022-11-16T21:56:26.563Z,77.99
2022-11-16T21:58:55.733Z,77.69
2022-11-16T22:01:25.081Z,77.28
2022-11-16T22:04:07.694Z,77.63
2022-11-16T22:06:56.814Z,77.42
2022-11-16T22:09:24.623Z,77.71
2022-11-16T22:11:52.415Z,77.67
2022-11-16T22:14:21.477Z,77.67
2022-11-16T22:16:49.229Z,78.21
2022-11-16T22:19:16.926Z,78.30
2022-11-16T22:21:44.818Z,78.05
2022-11-16T22:24:12.497Z,77.35
2022-11-16T22:26:45.454Z,78.22
2022-11-16T22:29:13.152Z,78.28
2022-11-16T22:31:42.365Z,78.32
2022-11-16T22:34:32.020Z,77.89
2022-11-16T22:36:59.823Z,77.72
2022-11-16T22:39:27.539Z,78.18
2022-11-16T22:41:55.330Z,78.96
2022-11-16T22:44:23.061Z,79.14
2022-11-16T22:48:04.443Z,79.00
2022-11-16T22:50:40.597Z,78.75
2022-11-16T22:53:08.486Z,79.70
2022-11-16T22:55:37.750Z,78.90
2022-11-16T22:58:06.084Z,78.28
2022-11-16T23:00:40.573Z,79.09
2022-11-16T23:03:09.942Z,78.68
2022-11-16T23:05:37.767Z,77.76
2022-11-16T23:08:06.977Z,77.66
2022-11-16T23:10:54.668Z,78.17
2022-11-16T23:13:45.103Z,77.86
2022-11-16T23:16:12.849Z,77.44
2022-11-16T23:18:40.614Z,78.60
2022-11-16T23:21:25.888Z,77.95
2022-11-16T23:24:21.410Z,77.57
2022-11-16T23:27:07.115Z,78.03
2022-11-16T23:29:35.491Z,77.99
2022-11-16T23:32:03.461Z,78.52
2022-11-16T23:34:31.205Z,77.70
2022-11-16T23:37:03.913Z,77.61
2022-11-16T23:39:33.816Z,77.49
2022-11-16T23:42:19.138Z,77.29
2022-11-16T23:44:47.160Z,77.04
2022-11-16T23:47:15.013Z,77.63
2022-11-16T23:49:43.097Z,77.31
2022-11-16T23:52:11.810Z,77.38
2022-11-16T23:54:41.043Z,77.46
2022-11-16T23:57:09.122Z,77.61
2022-11-16T23:59:36.855Z,77.17
